sensor_id;sensor_type;location;lat;lon;timestamp;P1;durP1;ratioP1;P2;durP2;ratioP2
7017;SDS011;3549;42.162;24.726;2023-10-09T00:00:53;14.40;;;3.80;;
7017;SDS011;3549;42.162;24.726;2023-10-09T00:03:26;11.43;;;3.60;;
7017;SDS011;3549;42.162;24.726;2023-10-09T00:05:53;7.67;;;3.20;;
7017;SDS011;3549;42.162;24.726;2023-10-09T00:08:19;12.93;;;3.40;;
7017;SDS011;3549;42.162;24.726;2023-10-09T00:10:51;9.13;;;3.50;;
7017;SDS011;3549;42.162;24.726;2023-10-09T00:13:21;9.50;;;3.50;;
7017;SDS011;3549;42.162;24.726;2023-10-09T00:16:05;8.40;;;3.50;;
7017;SDS011;3549;42.162;24.726;2023-10-09T00:18:39;11.27;;;3.60;;
7017;SDS011;3549;42.162;24.726;2023-10-09T00:21:13;12.23;;;3.30;;
7017;SDS011;3549;42.162;24.726;2023-10-09T00:23:40;12.70;;;3.60;;
7017;SDS011;3549;42.162;24.726;2023-10-09T00:26:07;10.00;;;3.47;;
7017;SDS011;3549;42.162;24.726;2023-10-09T00:28:41;9.10;;;3.43;;
7017;SDS011;3549;42.162;24.726;2023-10-09T00:31:09;8.10;;;3.10;;
7017;SDS011;3549;42.162;24.726;2023-10-09T00:33:40;8.00;;;3.13;;
7017;SDS011;3549;42.162;24.726;2023-10-09T00:36:06;9.07;;;3.60;;
7017;SDS011;3549;42.162;24.726;2023-10-09T00:38:36;11.40;;;3.70;;
7017;SDS011;3549;42.162;24.726;2023-10-09T00:41:04;8.37;;;3.23;;
7017;SDS011;3549;42.162;24.726;2023-10-09T00:43:35;13.10;;;3.67;;
7017;SDS011;3549;42.162;24.726;2023-10-09T00:46:02;10.53;;;3.30;;
7017;SDS011;3549;42.162;24.726;2023-10-09T00:48:46;11.53;;;3.67;;
7017;SDS011;3549;42.162;24.726;2023-10-09T00:51:13;9.60;;;3.23;;
7017;SDS011;3549;42.162;24.726;2023-10-09T00:53:44;7.37;;;3.13;;
7017;SDS011;3549;42.162;24.726;2023-10-09T00:56:15;12.00;;;3.30;;
7017;SDS011;3549;42.162;24.726;2023-10-09T00:59:03;9.47;;;3.10;;
7017;SDS011;3549;42.162;24.726;2023-10-09T01:01:34;9.23;;;3.00;;
7017;SDS011;3549;42.162;24.726;2023-10-09T01:04:05;15.53;;;5.30;;
7017;SDS011;3549;42.162;24.726;2023-10-09T01:06:42;8.23;;;4.50;;
7017;SDS011;3549;42.162;24.726;2023-10-09T01:09:15;9.07;;;5.17;;
7017;SDS011;3549;42.162;24.726;2023-10-09T01:11:45;16.03;;;6.20;;
7017;SDS011;3549;42.162;24.726;2023-10-09T01:14:27;7.80;;;4.43;;
7017;SDS011;3549;42.162;24.726;2023-10-09T01:16:53;8.43;;;3.70;;
7017;SDS011;3549;42.162;24.726;2023-10-09T01:19:22;7.13;;;3.37;;
7017;SDS011;3549;42.162;24.726;2023-10-09T01:21:56;5.37;;;2.97;;
7017;SDS011;3549;42.162;24.726;2023-10-09T01:24:29;5.97;;;3.40;;
7017;SDS011;3549;42.162;24.726;2023-10-09T01:26:56;6.30;;;2.73;;
7017;SDS011;3549;42.162;24.726;2023-10-09T01:29:24;7.50;;;2.63;;
7017;SDS011;3549;42.162;24.726;2023-10-09T01:31:55;3.87;;;2.60;;
7017;SDS011;3549;42.162;24.726;2023-10-09T01:34:26;7.20;;;2.97;;
7017;SDS011;3549;42.162;24.726;2023-10-09T01:37:09;5.63;;;2.87;;
7017;SDS011;3549;42.162;24.726;2023-10-09T01:39:47;6.03;;;2.80;;
7017;SDS011;3549;42.162;24.726;2023-10-09T01:42:17;9.53;;;2.70;;
7017;SDS011;3549;42.162;24.726;2023-10-09T01:44:50;5.30;;;2.40;;
7017;SDS011;3549;42.162;24.726;2023-10-09T01:47:17;4.47;;;2.50;;
7017;SDS011;3549;42.162;24.726;2023-10-09T01:49:44;4.13;;;2.53;;
7017;SDS011;3549;42.162;24.726;2023-10-09T01:52:14;4.10;;;2.73;;
7017;SDS011;3549;42.162;24.726;2023-10-09T01:54:47;5.17;;;2.70;;
7017;SDS011;3549;42.162;24.726;2023-10-09T01:57:16;5.47;;;2.77;;
7017;SDS011;3549;42.162;24.726;2023-10-09T01:59:49;8.97;;;2.87;;
7017;SDS011;3549;42.162;24.726;2023-10-09T02:02:18;7.13;;;3.60;;
7017;SDS011;3549;42.162;24.726;2023-10-09T02:04:57;5.10;;;2.90;;
7017;SDS011;3549;42.162;24.726;2023-10-09T02:07:50;6.50;;;2.90;;
7017;SDS011;3549;42.162;24.726;2023-10-09T02:10:19;7.93;;;3.30;;
7017;SDS011;3549;42.162;24.726;2023-10-09T02:12:56;6.90;;;3.40;;
7017;SDS011;3549;42.162;24.726;2023-10-09T02:15:31;7.73;;;3.90;;
7017;SDS011;3549;42.162;24.726;2023-10-09T02:18:19;9.93;;;4.10;;
7017;SDS011;3549;42.162;24.726;2023-10-09T02:20:49;10.83;;;3.87;;
7017;SDS011;3549;42.162;24.726;2023-10-09T02:23:24;9.80;;;3.80;;
7017;SDS011;3549;42.162;24.726;2023-10-09T02:25:56;9.10;;;4.83;;
7017;SDS011;3549;42.162;24.726;2023-10-09T02:28:22;16.03;;;4.63;;
7017;SDS011;3549;42.162;24.726;2023-10-09T02:30:47;12.43;;;3.80;;
7017;SDS011;3549;42.162;24.726;2023-10-09T02:33:14;14.83;;;3.77;;
7017;SDS011;3549;42.162;24.726;2023-10-09T02:35:53;10.43;;;3.20;;
7017;SDS011;3549;42.162;24.726;2023-10-09T02:38:19;13.27;;;3.17;;
7017;SDS011;3549;42.162;24.726;2023-10-09T02:40:48;12.93;;;3.00;;
7017;SDS011;3549;42.162;24.726;2023-10-09T02:43:45;10.13;;;2.60;;
7017;SDS011;3549;42.162;24.726;2023-10-09T02:46:12;9.30;;;2.70;;
7017;SDS011;3549;42.162;24.726;2023-10-09T02:48:54;17.73;;;2.90;;
7017;SDS011;3549;42.162;24.726;2023-10-09T02:51:24;11.40;;;2.80;;
7017;SDS011;3549;42.162;24.726;2023-10-09T02:53:50;8.53;;;2.70;;
7017;SDS011;3549;42.162;24.726;2023-10-09T02:56:16;11.93;;;2.90;;
7017;SDS011;3549;42.162;24.726;2023-10-09T02:58:48;11.40;;;2.80;;
7017;SDS011;3549;42.162;24.726;2023-10-09T03:01:15;11.63;;;2.50;;
7017;SDS011;3549;42.162;24.726;2023-10-09T03:03:41;13.57;;;3.00;;
7017;SDS011;3549;42.162;24.726;2023-10-09T03:06:11;10.50;;;2.90;;
7017;SDS011;3549;42.162;24.726;2023-10-09T03:08:38;10.77;;;2.93;;
7017;SDS011;3549;42.162;24.726;2023-10-09T03:11:06;7.50;;;2.47;;
7017;SDS011;3549;42.162;24.726;2023-10-09T03:13:39;5.00;;;2.60;;
7017;SDS011;3549;42.162;24.726;2023-10-09T03:16:08;12.27;;;2.63;;
7017;SDS011;3549;42.162;24.726;2023-10-09T03:18:44;7.67;;;2.33;;
7017;SDS011;3549;42.162;24.726;2023-10-09T03:21:11;6.17;;;2.30;;
7017;SDS011;3549;42.162;24.726;2023-10-09T03:23:37;12.77;;;3.10;;
7017;SDS011;3549;42.162;24.726;2023-10-09T03:26:03;8.13;;;2.50;;
7017;SDS011;3549;42.162;24.726;2023-10-09T03:28:29;7.53;;;2.40;;
7017;SDS011;3549;42.162;24.726;2023-10-09T03:30:54;8.27;;;2.40;;
7017;SDS011;3549;42.162;24.726;2023-10-09T03:33:20;9.57;;;2.50;;
7017;SDS011;3549;42.162;24.726;2023-10-09T03:35:45;4.67;;;2.23;;
7017;SDS011;3549;42.162;24.726;2023-10-09T03:38:11;9.17;;;2.40;;
7017;SDS011;3549;42.162;24.726;2023-10-09T03:40:46;7.27;;;2.10;;
7017;SDS011;3549;42.162;24.726;2023-10-09T03:43:14;6.77;;;2.10;;
7017;SDS011;3549;42.162;24.726;2023-10-09T03:45:40;7.47;;;2.23;;
7017;SDS011;3549;42.162;24.726;2023-10-09T03:48:17;11.13;;;2.50;;
7017;SDS011;3549;42.162;24.726;2023-10-09T03:50:57;7.20;;;2.13;;
7017;SDS011;3549;42.162;24.726;2023-10-09T03:53:36;7.97;;;2.30;;
7017;SDS011;3549;42.162;24.726;2023-10-09T03:56:04;4.30;;;2.07;;
7017;SDS011;3549;42.162;24.726;2023-10-09T03:58:37;4.53;;;2.47;;
7017;SDS011;3549;42.162;24.726;2023-10-09T04:01:17;11.80;;;2.30;;
7017;SDS011;3549;42.162;24.726;2023-10-09T04:03:47;5.33;;;2.13;;
7017;SDS011;3549;42.162;24.726;2023-10-09T04:06:12;4.23;;;2.00;;
7017;SDS011;3549;42.162;24.726;2023-10-09T04:08:38;4.23;;;2.17;;
7017;SDS011;3549;42.162;24.726;2023-10-09T04:11:11;8.23;;;2.10;;
7017;SDS011;3549;42.162;24.726;2023-10-09T04:13:44;4.77;;;2.00;;
7017;SDS011;3549;42.162;24.726;2023-10-09T04:16:14;5.20;;;2.20;;
7017;SDS011;3549;42.162;24.726;2023-10-09T04:19:06;6.50;;;2.00;;
7017;SDS011;3549;42.162;24.726;2023-10-09T04:21:36;5.73;;;2.00;;
7017;SDS011;3549;42.162;24.726;2023-10-09T04:24:08;5.27;;;2.47;;
7017;SDS011;3549;42.162;24.726;2023-10-09T04:26:37;7.53;;;2.33;;
7017;SDS011;3549;42.162;24.726;2023-10-09T04:29:09;3.87;;;2.00;;
7017;SDS011;3549;42.162;24.726;2023-10-09T04:31:35;6.47;;;2.33;;
7017;SDS011;3549;42.162;24.726;2023-10-09T04:34:05;5.50;;;2.23;;
7017;SDS011;3549;42.162;24.726;2023-10-09T04:36:50;7.70;;;2.47;;
7017;SDS011;3549;42.162;24.726;2023-10-09T04:39:24;6.13;;;2.30;;
7017;SDS011;3549;42.162;24.726;2023-10-09T04:41:56;6.57;;;2.50;;
7017;SDS011;3549;42.162;24.726;2023-10-09T04:44:41;4.10;;;2.23;;
7017;SDS011;3549;42.162;24.726;2023-10-09T04:47:46;5.87;;;2.40;;
7017;SDS011;3549;42.162;24.726;2023-10-09T04:50:36;4.70;;;2.20;;
7017;SDS011;3549;42.162;24.726;2023-10-09T04:53:22;6.97;;;2.30;;
7017;SDS011;3549;42.162;24.726;2023-10-09T04:55:53;5.93;;;2.43;;
7017;SDS011;3549;42.162;24.726;2023-10-09T04:58:22;6.40;;;2.30;;
7017;SDS011;3549;42.162;24.726;2023-10-09T05:00:50;5.00;;;2.50;;
7017;SDS011;3549;42.162;24.726;2023-10-09T05:03:23;6.03;;;2.80;;
7017;SDS011;3549;42.162;24.726;2023-10-09T05:06:08;7.17;;;2.63;;
7017;SDS011;3549;42.162;24.726;2023-10-09T05:08:49;7.60;;;2.80;;
7017;SDS011;3549;42.162;24.726;2023-10-09T05:11:18;8.20;;;2.50;;
7017;SDS011;3549;42.162;24.726;2023-10-09T05:14:05;13.87;;;2.70;;
7017;SDS011;3549;42.162;24.726;2023-10-09T05:16:37;6.77;;;2.50;;
7017;SDS011;3549;42.162;24.726;2023-10-09T05:19:19;10.57;;;2.70;;
7017;SDS011;3549;42.162;24.726;2023-10-09T05:21:54;8.70;;;2.70;;
7017;SDS011;3549;42.162;24.726;2023-10-09T05:24:23;7.30;;;2.63;;
7017;SDS011;3549;42.162;24.726;2023-10-09T05:26:51;6.93;;;2.73;;
7017;SDS011;3549;42.162;24.726;2023-10-09T05:29:18;12.03;;;2.53;;
7017;SDS011;3549;42.162;24.726;2023-10-09T05:31:54;7.07;;;2.53;;
7017;SDS011;3549;42.162;24.726;2023-10-09T05:34:22;5.30;;;2.80;;
7017;SDS011;3549;42.162;24.726;2023-10-09T05:36:58;7.20;;;2.50;;
7017;SDS011;3549;42.162;24.726;2023-10-09T05:39:42;6.50;;;3.27;;
7017;SDS011;3549;42.162;24.726;2023-10-09T05:42:32;9.63;;;2.90;;
7017;SDS011;3549;42.162;24.726;2023-10-09T05:45:01;7.60;;;2.53;;
7017;SDS011;3549;42.162;24.726;2023-10-09T05:47:42;8.20;;;2.60;;
7017;SDS011;3549;42.162;24.726;2023-10-09T05:50:27;5.83;;;2.50;;
7017;SDS011;3549;42.162;24.726;2023-10-09T05:52:56;12.73;;;4.43;;
7017;SDS011;3549;42.162;24.726;2023-10-09T05:55:30;5.77;;;3.00;;
7017;SDS011;3549;42.162;24.726;2023-10-09T05:58:05;7.03;;;2.80;;
7017;SDS011;3549;42.162;24.726;2023-10-09T06:00:50;11.87;;;2.97;;
7017;SDS011;3549;42.162;24.726;2023-10-09T06:03:51;5.30;;;2.87;;
7017;SDS011;3549;42.162;24.726;2023-10-09T06:06:20;10.30;;;2.80;;
7017;SDS011;3549;42.162;24.726;2023-10-09T06:09:07;5.83;;;2.70;;
7017;SDS011;3549;42.162;24.726;2023-10-09T06:11:35;4.87;;;2.53;;
7017;SDS011;3549;42.162;24.726;2023-10-09T06:14:04;2.83;;;2.30;;
7017;SDS011;3549;42.162;24.726;2023-10-09T06:16:33;6.17;;;2.60;;
7017;SDS011;3549;42.162;24.726;2023-10-09T06:19:17;8.60;;;2.83;;
7017;SDS011;3549;42.162;24.726;2023-10-09T06:21:48;7.03;;;2.50;;
7017;SDS011;3549;42.162;24.726;2023-10-09T06:24:17;5.00;;;2.43;;
7017;SDS011;3549;42.162;24.726;2023-10-09T06:26:48;6.13;;;2.93;;
7017;SDS011;3549;42.162;24.726;2023-10-09T06:29:23;5.37;;;2.73;;
7017;SDS011;3549;42.162;24.726;2023-10-09T06:32:15;6.87;;;2.33;;
7017;SDS011;3549;42.162;24.726;2023-10-09T06:34:51;7.13;;;2.60;;
7017;SDS011;3549;42.162;24.726;2023-10-09T06:37:43;3.73;;;2.67;;
7017;SDS011;3549;42.162;24.726;2023-10-09T06:40:38;8.73;;;2.50;;
7017;SDS011;3549;42.162;24.726;2023-10-09T06:43:04;5.17;;;2.50;;
7017;SDS011;3549;42.162;24.726;2023-10-09T06:45:40;7.63;;;2.50;;
7017;SDS011;3549;42.162;24.726;2023-10-09T06:48:19;4.63;;;2.70;;
7017;SDS011;3549;42.162;24.726;2023-10-09T06:51:03;5.67;;;2.70;;
7017;SDS011;3549;42.162;24.726;2023-10-09T06:53:38;6.07;;;2.90;;
7017;SDS011;3549;42.162;24.726;2023-10-09T06:56:19;4.50;;;2.53;;
7017;SDS011;3549;42.162;24.726;2023-10-09T06:58:55;7.30;;;2.60;;
7017;SDS011;3549;42.162;24.726;2023-10-09T07:01:25;3.77;;;2.63;;
7017;SDS011;3549;42.162;24.726;2023-10-09T07:03:53;5.27;;;2.60;;
7017;SDS011;3549;42.162;24.726;2023-10-09T07:06:35;5.77;;;2.73;;
7017;SDS011;3549;42.162;24.726;2023-10-09T07:09:01;8.83;;;3.07;;
7017;SDS011;3549;42.162;24.726;2023-10-09T07:11:33;5.20;;;2.50;;
7017;SDS011;3549;42.162;24.726;2023-10-09T07:14:05;4.93;;;2.50;;
7017;SDS011;3549;42.162;24.726;2023-10-09T07:19:48;7.87;;;2.50;;
7017;SDS011;3549;42.162;24.726;2023-10-09T07:22:14;5.80;;;2.60;;
7017;SDS011;3549;42.162;24.726;2023-10-09T07:24:43;4.13;;;2.77;;
7017;SDS011;3549;42.162;24.726;2023-10-09T07:27:09;6.70;;;2.83;;
7017;SDS011;3549;42.162;24.726;2023-10-09T07:29:37;5.13;;;2.67;;
7017;SDS011;3549;42.162;24.726;2023-10-09T07:32:13;6.73;;;2.40;;
7017;SDS011;3549;42.162;24.726;2023-10-09T07:34:45;6.80;;;2.70;;
7017;SDS011;3549;42.162;24.726;2023-10-09T07:37:29;6.50;;;2.57;;
7017;SDS011;3549;42.162;24.726;2023-10-09T07:40:01;8.00;;;2.50;;
7017;SDS011;3549;42.162;24.726;2023-10-09T07:42:32;5.30;;;2.50;;
7017;SDS011;3549;42.162;24.726;2023-10-09T07:45:07;4.80;;;2.40;;
7017;SDS011;3549;42.162;24.726;2023-10-09T07:47:48;3.37;;;2.30;;
7017;SDS011;3549;42.162;24.726;2023-10-09T07:50:27;4.77;;;2.47;;
7017;SDS011;3549;42.162;24.726;2023-10-09T07:53:15;3.03;;;2.60;;
7017;SDS011;3549;42.162;24.726;2023-10-09T07:55:44;5.30;;;2.70;;
7017;SDS011;3549;42.162;24.726;2023-10-09T07:58:40;6.23;;;2.50;;
7017;SDS011;3549;42.162;24.726;2023-10-09T08:01:12;3.47;;;2.70;;
7017;SDS011;3549;42.162;24.726;2023-10-09T08:03:46;4.27;;;2.40;;
7017;SDS011;3549;42.162;24.726;2023-10-09T08:06:15;5.27;;;2.70;;
7017;SDS011;3549;42.162;24.726;2023-10-09T08:09:00;5.37;;;2.70;;
7017;SDS011;3549;42.162;24.726;2023-10-09T08:11:31;4.83;;;2.90;;
7017;SDS011;3549;42.162;24.726;2023-10-09T08:14:06;4.63;;;3.40;;
7017;SDS011;3549;42.162;24.726;2023-10-09T08:16:46;6.33;;;3.30;;
7017;SDS011;3549;42.162;24.726;2023-10-09T08:19:11;6.50;;;3.13;;
7017;SDS011;3549;42.162;24.726;2023-10-09T08:22:01;5.00;;;3.67;;
7017;SDS011;3549;42.162;24.726;2023-10-09T08:24:46;6.13;;;3.20;;
7017;SDS011;3549;42.162;24.726;2023-10-09T08:27:28;8.00;;;3.43;;
7017;SDS011;3549;42.162;24.726;2023-10-09T08:29:54;6.07;;;3.30;;
7017;SDS011;3549;42.162;24.726;2023-10-09T08:32:39;7.50;;;3.03;;
7017;SDS011;3549;42.162;24.726;2023-10-09T08:35:07;5.97;;;3.37;;
7017;SDS011;3549;42.162;24.726;2023-10-09T08:37:52;6.83;;;3.10;;
7017;SDS011;3549;42.162;24.726;2023-10-09T08:40:18;7.57;;;3.00;;
7017;SDS011;3549;42.162;24.726;2023-10-09T08:42:52;6.73;;;3.50;;
7017;SDS011;3549;42.162;24.726;2023-10-09T08:45:22;5.90;;;3.20;;
7017;SDS011;3549;42.162;24.726;2023-10-09T08:47:50;6.67;;;3.17;;
7017;SDS011;3549;42.162;24.726;2023-10-09T08:50:19;4.60;;;3.03;;
7017;SDS011;3549;42.162;24.726;2023-10-09T08:52:47;6.50;;;3.23;;
7017;SDS011;3549;42.162;24.726;2023-10-09T08:55:14;7.70;;;3.53;;
7017;SDS011;3549;42.162;24.726;2023-10-09T08:57:42;8.30;;;3.37;;
7017;SDS011;3549;42.162;24.726;2023-10-09T09:00:16;6.57;;;3.40;;
7017;SDS011;3549;42.162;24.726;2023-10-09T09:02:46;8.27;;;3.70;;
7017;SDS011;3549;42.162;24.726;2023-10-09T09:05:21;11.10;;;3.57;;
7017;SDS011;3549;42.162;24.726;2023-10-09T09:07:47;7.10;;;3.47;;
7017;SDS011;3549;42.162;24.726;2023-10-09T09:10:13;6.77;;;3.80;;
7017;SDS011;3549;42.162;24.726;2023-10-09T09:12:49;6.93;;;3.60;;
7017;SDS011;3549;42.162;24.726;2023-10-09T09:15:26;11.37;;;3.60;;
7017;SDS011;3549;42.162;24.726;2023-10-09T09:17:52;6.67;;;3.83;;
7017;SDS011;3549;42.162;24.726;2023-10-09T09:20:31;6.53;;;3.90;;
7017;SDS011;3549;42.162;24.726;2023-10-09T09:23:01;10.57;;;3.50;;
7017;SDS011;3549;42.162;24.726;2023-10-09T09:25:40;7.40;;;3.97;;
7017;SDS011;3549;42.162;24.726;2023-10-09T09:28:13;6.73;;;3.70;;
7017;SDS011;3549;42.162;24.726;2023-10-09T09:30:46;7.53;;;3.40;;
7017;SDS011;3549;42.162;24.726;2023-10-09T09:33:28;7.93;;;3.70;;
7017;SDS011;3549;42.162;24.726;2023-10-09T09:36:06;8.90;;;3.43;;
7017;SDS011;3549;42.162;24.726;2023-10-09T09:38:33;6.63;;;3.50;;
7017;SDS011;3549;42.162;24.726;2023-10-09T09:41:21;5.23;;;3.40;;
7017;SDS011;3549;42.162;24.726;2023-10-09T09:46:26;8.20;;;3.40;;
7017;SDS011;3549;42.162;24.726;2023-10-09T09:49:02;7.35;;;3.45;;
7017;SDS011;3549;42.162;24.726;2023-10-09T09:51:32;7.43;;;3.53;;
7017;SDS011;3549;42.162;24.726;2023-10-09T09:53:57;12.93;;;3.60;;
7017;SDS011;3549;42.162;24.726;2023-10-09T09:56:26;5.53;;;2.90;;
7017;SDS011;3549;42.162;24.726;2023-10-09T09:59:00;5.37;;;3.33;;
7017;SDS011;3549;42.162;24.726;2023-10-09T10:01:30;5.93;;;3.40;;
7017;SDS011;3549;42.162;24.726;2023-10-09T10:04:10;10.47;;;3.27;;
7017;SDS011;3549;42.162;24.726;2023-10-09T10:06:40;8.27;;;3.00;;
7017;SDS011;3549;42.162;24.726;2023-10-09T10:09:09;8.50;;;3.03;;
7017;SDS011;3549;42.162;24.726;2023-10-09T10:11:47;4.93;;;3.10;;
7017;SDS011;3549;42.162;24.726;2023-10-09T10:14:17;9.00;;;3.33;;
7017;SDS011;3549;42.162;24.726;2023-10-09T10:19:59;6.90;;;3.40;;
7017;SDS011;3549;42.162;24.726;2023-10-09T10:22:44;5.53;;;3.23;;
7017;SDS011;3549;42.162;24.726;2023-10-09T10:30:48;6.90;;;3.20;;
7017;SDS011;3549;42.162;24.726;2023-10-09T10:33:15;7.37;;;3.50;;
7017;SDS011;3549;42.162;24.726;2023-10-09T10:35:41;9.23;;;3.30;;
7017;SDS011;3549;42.162;24.726;2023-10-09T10:41:07;9.20;;;3.47;;
7017;SDS011;3549;42.162;24.726;2023-10-09T10:43:36;7.40;;;3.20;;
7017;SDS011;3549;42.162;24.726;2023-10-09T10:46:17;6.80;;;3.40;;
7017;SDS011;3549;42.162;24.726;2023-10-09T10:48:56;6.93;;;3.30;;
7017;SDS011;3549;42.162;24.726;2023-10-09T10:51:28;10.57;;;3.50;;
7017;SDS011;3549;42.162;24.726;2023-10-09T10:54:03;8.07;;;3.70;;
7017;SDS011;3549;42.162;24.726;2023-10-09T10:56:47;8.30;;;3.67;;
7017;SDS011;3549;42.162;24.726;2023-10-09T10:59:13;6.10;;;3.30;;
7017;SDS011;3549;42.162;24.726;2023-10-09T11:01:39;6.47;;;3.20;;
7017;SDS011;3549;42.162;24.726;2023-10-09T11:04:40;7.40;;;3.20;;
7017;SDS011;3549;42.162;24.726;2023-10-09T11:07:08;5.63;;;3.60;;
7017;SDS011;3549;42.162;24.726;2023-10-09T11:15:29;7.67;;;3.60;;
7017;SDS011;3549;42.162;24.726;2023-10-09T11:18:11;6.67;;;3.27;;
7017;SDS011;3549;42.162;24.726;2023-10-09T11:20:53;9.47;;;3.57;;
7017;SDS011;3549;42.162;24.726;2023-10-09T11:23:41;6.43;;;3.60;;
7017;SDS011;3549;42.162;24.726;2023-10-09T11:26:16;6.70;;;3.17;;
7017;SDS011;3549;42.162;24.726;2023-10-09T11:29:09;10.70;;;3.63;;
7017;SDS011;3549;42.162;24.726;2023-10-09T11:32:03;8.53;;;3.50;;
7017;SDS011;3549;42.162;24.726;2023-10-09T11:34:30;8.80;;;3.60;;
7017;SDS011;3549;42.162;24.726;2023-10-09T11:37:01;4.67;;;3.30;;
7017;SDS011;3549;42.162;24.726;2023-10-09T11:39:34;8.87;;;3.63;;
7017;SDS011;3549;42.162;24.726;2023-10-09T11:42:00;8.57;;;4.13;;
7017;SDS011;3549;42.162;24.726;2023-10-09T11:44:40;6.97;;;3.83;;
7017;SDS011;3549;42.162;24.726;2023-10-09T11:47:09;6.63;;;3.70;;
7017;SDS011;3549;42.162;24.726;2023-10-09T11:52:54;7.10;;;3.43;;
7017;SDS011;3549;42.162;24.726;2023-10-09T11:55:45;8.10;;;3.47;;
7017;SDS011;3549;42.162;24.726;2023-10-09T11:58:17;12.60;;;3.63;;
7017;SDS011;3549;42.162;24.726;2023-10-09T12:00:51;6.60;;;3.50;;
7017;SDS011;3549;42.162;24.726;2023-10-09T12:03:25;7.13;;;4.00;;
7017;SDS011;3549;42.162;24.726;2023-10-09T12:05:59;6.93;;;3.38;;
7017;SDS011;3549;42.162;24.726;2023-10-09T12:08:39;8.05;;;4.22;;
7017;SDS011;3549;42.162;24.726;2023-10-09T12:11:07;8.23;;;3.63;;
7017;SDS011;3549;42.162;24.726;2023-10-09T12:13:34;9.77;;;3.80;;
7017;SDS011;3549;42.162;24.726;2023-10-09T12:16:03;6.22;;;3.72;;
7017;SDS011;3549;42.162;24.726;2023-10-09T12:18:33;6.85;;;3.95;;
7017;SDS011;3549;42.162;24.726;2023-10-09T12:20:59;7.28;;;3.90;;
7017;SDS011;3549;42.162;24.726;2023-10-09T12:23:29;8.65;;;3.50;;
7017;SDS011;3549;42.162;24.726;2023-10-09T12:26:00;5.60;;;3.40;;
7017;SDS011;3549;42.162;24.726;2023-10-09T12:28:29;8.27;;;3.78;;
7017;SDS011;3549;42.162;24.726;2023-10-09T12:30:58;8.75;;;3.88;;
7017;SDS011;3549;42.162;24.726;2023-10-09T12:33:27;11.27;;;3.33;;
7017;SDS011;3549;42.162;24.726;2023-10-09T12:35:54;5.70;;;3.40;;
7017;SDS011;3549;42.162;24.726;2023-10-09T12:38:29;10.80;;;3.45;;
7017;SDS011;3549;42.162;24.726;2023-10-09T12:41:01;4.90;;;3.22;;
7017;SDS011;3549;42.162;24.726;2023-10-09T12:43:33;6.55;;;3.22;;
7017;SDS011;3549;42.162;24.726;2023-10-09T12:46:06;5.43;;;3.83;;
7017;SDS011;3549;42.162;24.726;2023-10-09T12:48:32;7.20;;;3.10;;
7017;SDS011;3549;42.162;24.726;2023-10-09T12:50:58;13.32;;;3.63;;
7017;SDS011;3549;42.162;24.726;2023-10-09T12:53:31;7.40;;;3.55;;
7017;SDS011;3549;42.162;24.726;2023-10-09T12:55:57;10.45;;;3.70;;
7017;SDS011;3549;42.162;24.726;2023-10-09T12:58:23;5.65;;;3.65;;
7017;SDS011;3549;42.162;24.726;2023-10-09T13:00:51;9.43;;;3.40;;
7017;SDS011;3549;42.162;24.726;2023-10-09T13:03:17;9.77;;;3.42;;
7017;SDS011;3549;42.162;24.726;2023-10-09T13:05:46;4.72;;;3.28;;
7017;SDS011;3549;42.162;24.726;2023-10-09T13:08:27;7.15;;;3.47;;
7017;SDS011;3549;42.162;24.726;2023-10-09T13:10:57;10.10;;;3.58;;
7017;SDS011;3549;42.162;24.726;2023-10-09T13:13:29;6.57;;;3.40;;
7017;SDS011;3549;42.162;24.726;2023-10-09T13:16:27;7.57;;;3.72;;
7017;SDS011;3549;42.162;24.726;2023-10-09T13:18:53;6.80;;;3.50;;
7017;SDS011;3549;42.162;24.726;2023-10-09T13:21:20;9.60;;;3.53;;
7017;SDS011;3549;42.162;24.726;2023-10-09T13:23:51;7.22;;;3.50;;
7017;SDS011;3549;42.162;24.726;2023-10-09T13:26:20;8.95;;;3.90;;
7017;SDS011;3549;42.162;24.726;2023-10-09T13:28:53;8.50;;;3.45;;
7017;SDS011;3549;42.162;24.726;2023-10-09T13:31:20;7.22;;;3.03;;
7017;SDS011;3549;42.162;24.726;2023-10-09T13:33:47;6.60;;;3.20;;
7017;SDS011;3549;42.162;24.726;2023-10-09T13:36:16;7.45;;;3.50;;
7017;SDS011;3549;42.162;24.726;2023-10-09T13:38:51;8.20;;;3.60;;
7017;SDS011;3549;42.162;24.726;2023-10-09T13:41:20;5.60;;;3.50;;
7017;SDS011;3549;42.162;24.726;2023-10-09T13:43:46;5.97;;;3.20;;
7017;SDS011;3549;42.162;24.726;2023-10-09T13:46:11;5.22;;;3.20;;
7017;SDS011;3549;42.162;24.726;2023-10-09T13:48:40;5.25;;;3.17;;
7017;SDS011;3549;42.162;24.726;2023-10-09T13:51:08;6.47;;;3.25;;
7017;SDS011;3549;42.162;24.726;2023-10-09T13:53:39;6.38;;;3.85;;
7017;SDS011;3549;42.162;24.726;2023-10-09T13:56:10;5.43;;;3.63;;
7017;SDS011;3549;42.162;24.726;2023-10-09T13:58:40;13.10;;;3.95;;
7017;SDS011;3549;42.162;24.726;2023-10-09T14:01:08;7.75;;;3.97;;
7017;SDS011;3549;42.162;24.726;2023-10-09T14:03:36;8.50;;;4.40;;
7017;SDS011;3549;42.162;24.726;2023-10-09T14:06:04;7.68;;;3.58;;
7017;SDS011;3549;42.162;24.726;2023-10-09T14:08:37;4.60;;;3.25;;
7017;SDS011;3549;42.162;24.726;2023-10-09T14:11:07;7.13;;;3.55;;
7017;SDS011;3549;42.162;24.726;2023-10-09T14:13:41;6.88;;;3.45;;
7017;SDS011;3549;42.162;24.726;2023-10-09T14:16:06;5.05;;;3.35;;
7017;SDS011;3549;42.162;24.726;2023-10-09T14:18:33;8.00;;;3.83;;
7017;SDS011;3549;42.162;24.726;2023-10-09T14:21:02;5.95;;;3.40;;
7017;SDS011;3549;42.162;24.726;2023-10-09T14:23:40;6.70;;;3.38;;
7017;SDS011;3549;42.162;24.726;2023-10-09T14:26:10;8.50;;;3.70;;
7017;SDS011;3549;42.162;24.726;2023-10-09T14:28:38;8.00;;;3.53;;
7017;SDS011;3549;42.162;24.726;2023-10-09T14:31:03;9.90;;;4.03;;
7017;SDS011;3549;42.162;24.726;2023-10-09T14:33:30;11.57;;;3.83;;
7017;SDS011;3549;42.162;24.726;2023-10-09T14:36:01;11.50;;;4.10;;
7017;SDS011;3549;42.162;24.726;2023-10-09T14:38:27;5.70;;;3.47;;
7017;SDS011;3549;42.162;24.726;2023-10-09T14:40:57;5.93;;;3.40;;
7017;SDS011;3549;42.162;24.726;2023-10-09T14:43:25;10.60;;;4.05;;
7017;SDS011;3549;42.162;24.726;2023-10-09T14:45:54;7.43;;;3.78;;
7017;SDS011;3549;42.162;24.726;2023-10-09T14:48:20;10.00;;;4.03;;
7017;SDS011;3549;42.162;24.726;2023-10-09T14:50:53;7.15;;;3.72;;
7017;SDS011;3549;42.162;24.726;2023-10-09T14:53:22;10.63;;;3.97;;
7017;SDS011;3549;42.162;24.726;2023-10-09T14:55:58;7.68;;;4.00;;
7017;SDS011;3549;42.162;24.726;2023-10-09T14:58:28;11.13;;;3.70;;
7017;SDS011;3549;42.162;24.726;2023-10-09T15:00:57;8.55;;;3.60;;
7017;SDS011;3549;42.162;24.726;2023-10-09T15:03:34;11.10;;;3.80;;
7017;SDS011;3549;42.162;24.726;2023-10-09T15:06:02;9.83;;;3.80;;
7017;SDS011;3549;42.162;24.726;2023-10-09T15:08:28;8.10;;;3.63;;
7017;SDS011;3549;42.162;24.726;2023-10-09T15:10:54;11.30;;;4.00;;
7017;SDS011;3549;42.162;24.726;2023-10-09T15:13:24;13.53;;;3.87;;
7017;SDS011;3549;42.162;24.726;2023-10-09T15:15:53;13.47;;;4.20;;
7017;SDS011;3549;42.162;24.726;2023-10-09T15:18:19;13.17;;;4.23;;
7017;SDS011;3549;42.162;24.726;2023-10-09T15:20:46;6.23;;;3.80;;
7017;SDS011;3549;42.162;24.726;2023-10-09T15:23:16;10.03;;;4.37;;
7017;SDS011;3549;42.162;24.726;2023-10-09T15:25:42;9.13;;;4.10;;
7017;SDS011;3549;42.162;24.726;2023-10-09T15:28:10;9.60;;;3.80;;
7017;SDS011;3549;42.162;24.726;2023-10-09T15:30:37;14.00;;;4.20;;
7017;SDS011;3549;42.162;24.726;2023-10-09T15:33:04;9.83;;;4.00;;
7017;SDS011;3549;42.162;24.726;2023-10-09T15:35:33;11.73;;;4.53;;
7017;SDS011;3549;42.162;24.726;2023-10-09T15:37:59;9.50;;;4.57;;
7017;SDS011;3549;42.162;24.726;2023-10-09T15:40:29;9.83;;;4.50;;
7017;SDS011;3549;42.162;24.726;2023-10-09T15:42:58;8.20;;;4.43;;
7017;SDS011;3549;42.162;24.726;2023-10-09T15:45:24;12.20;;;4.30;;
7017;SDS011;3549;42.162;24.726;2023-10-09T15:47:53;10.43;;;4.67;;
7017;SDS011;3549;42.162;24.726;2023-10-09T15:50:20;15.70;;;5.30;;
7017;SDS011;3549;42.162;24.726;2023-10-09T15:52:51;13.07;;;4.47;;
7017;SDS011;3549;42.162;24.726;2023-10-09T15:55:18;9.90;;;4.37;;
7017;SDS011;3549;42.162;24.726;2023-10-09T15:57:46;11.33;;;4.27;;